sensor_id;sensor_type;location;lat;lon;timestamp;noise_LAeq;noise_LA_min;noise_LA_max;noise_LA01;noise_LA95
60503;Laerm;51448;51.660;5.824;2023-07-29T00:02:06;42.86;28.54;55.37;;
60503;Laerm;51448;51.660;5.824;2023-07-29T00:04:33;42.71;28.68;54.42;;
60503;Laerm;51448;51.660;5.824;2023-07-29T00:07:01;42.30;28.74;54.31;;
60503;Laerm;51448;51.660;5.824;2023-07-29T00:09:28;42.29;27.78;54.56;;
60503;Laerm;51448;51.660;5.824;2023-07-29T00:11:56;43.58;28.15;56.13;;
60503;Laerm;51448;51.660;5.824;2023-07-29T00:14:23;43.62;28.32;55.64;;
60503;Laerm;51448;51.660;5.824;2023-07-29T00:16:51;43.41;28.26;55.76;;
60503;Laerm;51448;51.660;5.824;2023-07-29T00:19:19;42.53;28.51;54.66;;
60503;Laerm;51448;51.660;5.824;2023-07-29T00:21:52;42.58;28.41;55.21;;
60503;Laerm;51448;51.660;5.824;2023-07-29T00:24:20;44.65;28.75;56.76;;
60503;Laerm;51448;51.660;5.824;2023-07-29T00:26:47;43.41;29.11;54.88;;
60503;Laerm;51448;51.660;5.824;2023-07-29T00:29:15;43.25;28.61;55.27;;
60503;Laerm;51448;51.660;5.824;2023-07-29T00:31:42;43.49;28.03;57.34;;
60503;Laerm;51448;51.660;5.824;2023-07-29T00:34:11;43.46;28.25;55.84;;
60503;Laerm;51448;51.660;5.824;2023-07-29T00:36:47;41.65;28.28;54.06;;
60503;Laerm;51448;51.660;5.824;2023-07-29T00:39:15;42.35;28.14;55.32;;
60503;Laerm;51448;51.660;5.824;2023-07-29T00:41:42;42.77;28.23;54.63;;
60503;Laerm;51448;51.660;5.824;2023-07-29T00:44:10;42.52;28.42;55.29;;
60503;Laerm;51448;51.660;5.824;2023-07-29T00:46:40;41.97;28.05;55.16;;
60503;Laerm;51448;51.660;5.824;2023-07-29T00:49:09;41.15;28.08;54.84;;
60503;Laerm;51448;51.660;5.824;2023-07-29T00:51:37;41.11;28.13;54.33;;
60503;Laerm;51448;51.660;5.824;2023-07-29T00:54:05;41.63;28.15;60.22;;
60503;Laerm;51448;51.660;5.824;2023-07-29T00:56:33;41.60;28.20;54.54;;
60503;Laerm;51448;51.660;5.824;2023-07-29T00:59:02;41.75;27.74;55.28;;
60503;Laerm;51448;51.660;5.824;2023-07-29T01:01:30;41.00;28.01;53.86;;
60503;Laerm;51448;51.660;5.824;2023-07-29T01:03:58;42.24;28.03;55.36;;
60503;Laerm;51448;51.660;5.824;2023-07-29T01:07:03;42.01;27.81;55.52;;
60503;Laerm;51448;51.660;5.824;2023-07-29T01:09:51;41.96;27.57;60.45;;
60503;Laerm;51448;51.660;5.824;2023-07-29T01:13:02;41.38;27.74;55.24;;
60503;Laerm;51448;51.660;5.824;2023-07-29T01:15:41;42.18;27.96;55.76;;
60503;Laerm;51448;51.660;5.824;2023-07-29T01:18:31;42.30;27.92;55.87;;
60503;Laerm;51448;51.660;5.824;2023-07-29T01:21:04;42.63;27.89;54.41;;
60503;Laerm;51448;51.660;5.824;2023-07-29T01:23:35;42.47;27.59;55.48;;
60503;Laerm;51448;51.660;5.824;2023-07-29T01:26:03;40.80;27.80;54.69;;
60503;Laerm;51448;51.660;5.824;2023-07-29T01:28:31;40.26;28.02;54.37;;
60503;Laerm;51448;51.660;5.824;2023-07-29T01:31:07;40.90;27.94;56.52;;
60503;Laerm;51448;51.660;5.824;2023-07-29T01:33:46;42.09;27.63;55.59;;
60503;Laerm;51448;51.660;5.824;2023-07-29T01:36:22;40.95;28.46;55.03;;
60503;Laerm;51448;51.660;5.824;2023-07-29T01:38:54;42.46;27.77;55.88;;
60503;Laerm;51448;51.660;5.824;2023-07-29T01:41:24;41.40;28.14;55.19;;
60503;Laerm;51448;51.660;5.824;2023-07-29T01:43:53;41.66;28.03;55.38;;
60503;Laerm;51448;51.660;5.824;2023-07-29T01:46:21;42.80;28.20;56.12;;
60503;Laerm;51448;51.660;5.824;2023-07-29T01:48:48;43.15;27.93;56.06;;
60503;Laerm;51448;51.660;5.824;2023-07-29T01:51:16;41.34;27.80;55.50;;
60503;Laerm;51448;51.660;5.824;2023-07-29T01:53:44;40.48;27.86;53.94;;
60503;Laerm;51448;51.660;5.824;2023-07-29T01:56:12;45.35;27.94;61.31;;
60503;Laerm;51448;51.660;5.824;2023-07-29T01:58:49;40.77;27.95;54.79;;
60503;Laerm;51448;51.660;5.824;2023-07-29T02:01:16;42.84;27.76;55.84;;
60503;Laerm;51448;51.660;5.824;2023-07-29T02:03:45;40.73;27.87;54.85;;
60503;Laerm;51448;51.660;5.824;2023-07-29T02:06:13;40.19;27.78;55.26;;
60503;Laerm;51448;51.660;5.824;2023-07-29T02:08:41;40.88;27.84;54.53;;
60503;Laerm;51448;51.660;5.824;2023-07-29T02:11:08;40.82;27.95;54.79;;
60503;Laerm;51448;51.660;5.824;2023-07-29T02:13:36;41.27;28.02;54.62;;
60503;Laerm;51448;51.660;5.824;2023-07-29T02:16:04;42.92;28.11;55.82;;
60503;Laerm;51448;51.660;5.824;2023-07-29T02:18:32;42.33;27.60;54.41;;
60503;Laerm;51448;51.660;5.824;2023-07-29T02:20:59;43.05;27.77;56.51;;
60503;Laerm;51448;51.660;5.824;2023-07-29T02:23:27;43.27;28.11;56.51;;
60503;Laerm;51448;51.660;5.824;2023-07-29T02:25:55;41.56;28.22;55.60;;
60503;Laerm;51448;51.660;5.824;2023-07-29T02:28:22;41.18;28.14;55.90;;
60503;Laerm;51448;51.660;5.824;2023-07-29T02:31:13;41.05;28.13;55.66;;
60503;Laerm;51448;51.660;5.824;2023-07-29T02:33:41;42.04;28.23;55.72;;
60503;Laerm;51448;51.660;5.824;2023-07-29T02:36:11;42.43;28.53;55.82;;
60503;Laerm;51448;51.660;5.824;2023-07-29T02:38:41;44.25;28.25;69.80;;
60503;Laerm;51448;51.660;5.824;2023-07-29T02:41:10;41.79;28.63;55.51;;
60503;Laerm;51448;51.660;5.824;2023-07-29T02:43:39;41.34;28.64;54.98;;
60503;Laerm;51448;51.660;5.824;2023-07-29T02:46:09;41.70;28.20;55.36;;
60503;Laerm;51448;51.660;5.824;2023-07-29T02:48:37;42.07;28.23;56.10;;
60503;Laerm;51448;51.660;5.824;2023-07-29T02:51:04;43.57;28.38;56.83;;
60503;Laerm;51448;51.660;5.824;2023-07-29T02:53:33;44.08;28.56;56.59;;
60503;Laerm;51448;51.660;5.824;2023-07-29T02:56:01;41.88;28.23;56.18;;
60503;Laerm;51448;51.660;5.824;2023-07-29T02:58:29;41.62;28.30;55.39;;
60503;Laerm;51448;51.660;5.824;2023-07-29T03:01:05;41.62;28.35;55.54;;
60503;Laerm;51448;51.660;5.824;2023-07-29T03:03:33;41.49;27.98;56.02;;
60503;Laerm;51448;51.660;5.824;2023-07-29T03:06:05;40.45;28.19;55.27;;
60503;Laerm;51448;51.660;5.824;2023-07-29T03:08:34;40.47;28.24;54.38;;
60503;Laerm;51448;51.660;5.824;2023-07-29T03:11:14;42.57;28.33;55.86;;
60503;Laerm;51448;51.660;5.824;2023-07-29T03:13:43;42.45;28.48;56.38;;
60503;Laerm;51448;51.660;5.824;2023-07-29T03:16:14;43.76;28.36;56.90;;
60503;Laerm;51448;51.660;5.824;2023-07-29T03:18:49;43.49;28.40;56.60;;
60503;Laerm;51448;51.660;5.824;2023-07-29T03:21:17;41.69;28.20;55.62;;
60503;Laerm;51448;51.660;5.824;2023-07-29T03:23:50;44.43;28.53;55.14;;
60503;Laerm;51448;51.660;5.824;2023-07-29T03:26:18;41.40;28.46;55.79;;
60503;Laerm;51448;51.660;5.824;2023-07-29T03:28:46;44.56;28.18;56.99;;
60503;Laerm;51448;51.660;5.824;2023-07-29T03:31:15;44.30;28.61;56.44;;
60503;Laerm;51448;51.660;5.824;2023-07-29T03:33:42;42.51;29.02;55.60;;
60503;Laerm;51448;51.660;5.824;2023-07-29T03:36:10;44.02;29.01;57.12;;
60503;Laerm;51448;51.660;5.824;2023-07-29T03:38:38;45.28;29.01;62.44;;
60503;Laerm;51448;51.660;5.824;2023-07-29T03:41:09;41.38;28.67;55.27;;
60503;Laerm;51448;51.660;5.824;2023-07-29T03:43:36;41.25;28.33;55.54;;
60503;Laerm;51448;51.660;5.824;2023-07-29T03:46:04;43.87;29.52;57.19;;
60503;Laerm;51448;51.660;5.824;2023-07-29T03:48:35;43.64;28.60;56.65;;
60503;Laerm;51448;51.660;5.824;2023-07-29T03:51:03;42.14;28.85;55.65;;
60503;Laerm;51448;51.660;5.824;2023-07-29T03:53:31;42.89;28.79;56.21;;
60503;Laerm;51448;51.660;5.824;2023-07-29T03:55:58;43.50;28.69;56.38;;
60503;Laerm;51448;51.660;5.824;2023-07-29T03:58:26;43.38;29.38;56.30;;
60503;Laerm;51448;51.660;5.824;2023-07-29T04:00:54;42.65;29.19;55.45;;
60503;Laerm;51448;51.660;5.824;2023-07-29T04:03:22;42.87;29.15;56.32;;
60503;Laerm;51448;51.660;5.824;2023-07-29T04:05:52;43.98;29.23;56.38;;
60503;Laerm;51448;51.660;5.824;2023-07-29T04:08:22;43.23;29.16;55.95;;
60503;Laerm;51448;51.660;5.824;2023-07-29T04:10:50;44.39;28.92;56.88;;
60503;Laerm;51448;51.660;5.824;2023-07-29T04:13:18;44.76;29.03;56.93;;
60503;Laerm;51448;51.660;5.824;2023-07-29T04:15:45;44.04;29.69;62.34;;
60503;Laerm;51448;51.660;5.824;2023-07-29T04:18:13;42.53;29.03;56.07;;
60503;Laerm;51448;51.660;5.824;2023-07-29T04:20:42;43.52;28.43;56.08;;
60503;Laerm;51448;51.660;5.824;2023-07-29T04:23:10;44.69;28.97;56.92;;
60503;Laerm;51448;51.660;5.824;2023-07-29T04:25:37;43.93;30.34;56.24;;
60503;Laerm;51448;51.660;5.824;2023-07-29T04:28:05;45.74;29.59;58.12;;
60503;Laerm;51448;51.660;5.824;2023-07-29T04:30:33;45.31;29.08;57.05;;
60503;Laerm;51448;51.660;5.824;2023-07-29T04:33:00;45.58;29.55;63.33;;
60503;Laerm;51448;51.660;5.824;2023-07-29T04:35:28;46.89;29.65;57.35;;
60503;Laerm;51448;51.660;5.824;2023-07-29T04:37:56;44.69;29.37;57.24;;
60503;Laerm;51448;51.660;5.824;2023-07-29T04:40:23;46.46;29.64;56.99;;
60503;Laerm;51448;51.660;5.824;2023-07-29T04:42:52;44.14;29.72;55.98;;
60503;Laerm;51448;51.660;5.824;2023-07-29T04:45:19;48.16;30.30;58.33;;
60503;Laerm;51448;51.660;5.824;2023-07-29T04:47:47;44.61;29.89;56.40;;
60503;Laerm;51448;51.660;5.824;2023-07-29T04:50:15;44.49;29.82;57.86;;
60503;Laerm;51448;51.660;5.824;2023-07-29T04:52:43;44.56;29.54;56.75;;
60503;Laerm;51448;51.660;5.824;2023-07-29T04:55:10;44.66;29.77;56.32;;
60503;Laerm;51448;51.660;5.824;2023-07-29T04:57:38;44.41;29.79;56.15;;
60503;Laerm;51448;51.660;5.824;2023-07-29T05:00:06;43.98;29.08;56.80;;
60503;Laerm;51448;51.660;5.824;2023-07-29T05:02:34;44.57;29.70;56.76;;
60503;Laerm;51448;51.660;5.824;2023-07-29T05:05:02;45.04;29.73;56.89;;
60503;Laerm;51448;51.660;5.824;2023-07-29T05:07:30;44.38;30.46;56.72;;
60503;Laerm;51448;51.660;5.824;2023-07-29T05:09:58;45.91;29.97;68.36;;
60503;Laerm;51448;51.660;5.824;2023-07-29T05:12:25;46.82;30.35;62.28;;
60503;Laerm;51448;51.660;5.824;2023-07-29T05:14:53;45.61;30.26;59.94;;
60503;Laerm;51448;51.660;5.824;2023-07-29T05:17:21;46.06;29.41;73.80;;
60503;Laerm;51448;51.660;5.824;2023-07-29T05:19:49;43.54;30.06;55.94;;
60503;Laerm;51448;51.660;5.824;2023-07-29T05:22:16;43.43;29.95;56.42;;
60503;Laerm;51448;51.660;5.824;2023-07-29T05:24:44;43.53;30.49;56.07;;
60503;Laerm;51448;51.660;5.824;2023-07-29T05:27:12;45.25;31.60;57.71;;
60503;Laerm;51448;51.660;5.824;2023-07-29T05:29:40;45.24;30.91;56.69;;
60503;Laerm;51448;51.660;5.824;2023-07-29T05:32:07;44.53;31.47;55.67;;
60503;Laerm;51448;51.660;5.824;2023-07-29T05:34:35;45.03;30.65;56.58;;
60503;Laerm;51448;51.660;5.824;2023-07-29T05:37:03;46.37;31.59;56.61;;
60503;Laerm;51448;51.660;5.824;2023-07-29T05:39:30;46.07;31.62;58.17;;
60503;Laerm;51448;51.660;5.824;2023-07-29T05:41:59;44.16;31.03;60.56;;
60503;Laerm;51448;51.660;5.824;2023-07-29T05:44:31;44.30;31.70;56.31;;
60503;Laerm;51448;51.660;5.824;2023-07-29T05:47:00;46.88;31.72;61.12;;
60503;Laerm;51448;51.660;5.824;2023-07-29T05:49:28;45.92;33.17;61.95;;
60503;Laerm;51448;51.660;5.824;2023-07-29T05:51:56;50.65;31.76;68.99;;
60503;Laerm;51448;51.660;5.824;2023-07-29T05:54:23;54.04;32.43;72.74;;
60503;Laerm;51448;51.660;5.824;2023-07-29T05:56:51;48.86;32.19;60.46;;
60503;Laerm;51448;51.660;5.824;2023-07-29T05:59:18;51.63;42.60;63.49;;
60503;Laerm;51448;51.660;5.824;2023-07-29T06:01:46;53.87;45.73;71.12;;
60503;Laerm;51448;51.660;5.824;2023-07-29T06:04:14;51.21;33.42;67.93;;
60503;Laerm;51448;51.660;5.824;2023-07-29T06:06:41;45.02;31.80;59.40;;
60503;Laerm;51448;51.660;5.824;2023-07-29T06:09:09;49.77;32.35;60.89;;
60503;Laerm;51448;51.660;5.824;2023-07-29T06:11:37;49.19;46.17;60.79;;
60503;Laerm;51448;51.660;5.824;2023-07-29T06:14:04;49.76;31.72;57.43;;
60503;Laerm;51448;51.660;5.824;2023-07-29T06:16:32;50.77;45.28;58.74;;
60503;Laerm;51448;51.660;5.824;2023-07-29T06:19:00;48.71;32.44;56.93;;
60503;Laerm;51448;51.660;5.824;2023-07-29T06:21:27;53.29;46.34;69.14;;
60503;Laerm;51448;51.660;5.824;2023-07-29T06:23:55;53.96;48.99;67.74;;
60503;Laerm;51448;51.660;5.824;2023-07-29T06:26:23;52.10;45.45;68.53;;
60503;Laerm;51448;51.660;5.824;2023-07-29T06:28:50;51.77;47.02;69.01;;
60503;Laerm;51448;51.660;5.824;2023-07-29T06:31:18;49.57;45.29;57.27;;
60503;Laerm;51448;51.660;5.824;2023-07-29T06:33:45;54.32;46.20;61.14;;
60503;Laerm;51448;51.660;5.824;2023-07-29T06:36:13;54.66;45.57;68.48;;
60503;Laerm;51448;51.660;5.824;2023-07-29T06:38:41;49.13;46.10;55.58;;
60503;Laerm;51448;51.660;5.824;2023-07-29T06:41:09;49.64;45.67;55.91;;
60503;Laerm;51448;51.660;5.824;2023-07-29T06:43:41;50.36;46.45;65.28;;
60503;Laerm;51448;51.660;5.824;2023-07-29T06:46:08;49.58;46.24;58.05;;
60503;Laerm;51448;51.660;5.824;2023-07-29T06:48:36;53.83;46.27;71.78;;
60503;Laerm;51448;51.660;5.824;2023-07-29T06:51:04;51.24;45.94;70.30;;
60503;Laerm;51448;51.660;5.824;2023-07-29T06:53:31;50.03;46.40;58.55;;
60503;Laerm;51448;51.660;5.824;2023-07-29T06:56:01;49.10;46.04;56.47;;
60503;Laerm;51448;51.660;5.824;2023-07-29T06:58:29;49.79;45.22;65.56;;
60503;Laerm;51448;51.660;5.824;2023-07-29T07:00:57;50.14;45.37;69.87;;
60503;Laerm;51448;51.660;5.824;2023-07-29T07:03:24;49.69;45.52;57.97;;
60503;Laerm;51448;51.660;5.824;2023-07-29T07:05:52;50.28;44.82;58.96;;
60503;Laerm;51448;51.660;5.824;2023-07-29T07:08:20;50.05;45.47;68.16;;
60503;Laerm;51448;51.660;5.824;2023-07-29T07:10:47;49.58;45.46;60.41;;
60503;Laerm;51448;51.660;5.824;2023-07-29T07:13:15;49.92;45.40;61.96;;
60503;Laerm;51448;51.660;5.824;2023-07-29T07:15:42;49.20;45.40;57.73;;
60503;Laerm;51448;51.660;5.824;2023-07-29T07:18:10;49.79;45.40;62.61;;
60503;Laerm;51448;51.660;5.824;2023-07-29T07:20:38;49.24;45.38;65.48;;
60503;Laerm;51448;51.660;5.824;2023-07-29T07:23:05;49.63;45.21;58.18;;
60503;Laerm;51448;51.660;5.824;2023-07-29T07:25:36;49.30;44.66;56.85;;
60503;Laerm;51448;51.660;5.824;2023-07-29T07:28:04;48.62;44.60;55.35;;
60503;Laerm;51448;51.660;5.824;2023-07-29T07:30:32;48.87;45.28;59.61;;
60503;Laerm;51448;51.660;5.824;2023-07-29T07:33:00;49.45;45.88;55.57;;
60503;Laerm;51448;51.660;5.824;2023-07-29T07:35:28;48.78;45.07;65.31;;
60503;Laerm;51448;51.660;5.824;2023-07-29T07:37:56;53.50;45.03;80.40;;
60503;Laerm;51448;51.660;5.824;2023-07-29T07:40:23;49.45;45.65;55.25;;
60503;Laerm;51448;51.660;5.824;2023-07-29T07:42:51;50.29;45.12;58.98;;
60503;Laerm;51448;51.660;5.824;2023-07-29T07:45:19;50.41;45.81;65.67;;
60503;Laerm;51448;51.660;5.824;2023-07-29T07:47:47;49.31;45.28;59.81;;
60503;Laerm;51448;51.660;5.824;2023-07-29T07:50:14;48.83;44.61;65.59;;
60503;Laerm;51448;51.660;5.824;2023-07-29T07:52:42;49.34;45.79;55.08;;
60503;Laerm;51448;51.660;5.824;2023-07-29T07:55:10;49.14;45.68;54.81;;
60503;Laerm;51448;51.660;5.824;2023-07-29T07:57:37;50.08;45.98;63.05;;
60503;Laerm;51448;51.660;5.824;2023-07-29T08:00:06;49.87;44.95;57.79;;
60503;Laerm;51448;51.660;5.824;2023-07-29T08:02:48;48.74;44.89;54.97;;
60503;Laerm;51448;51.660;5.824;2023-07-29T08:05:16;50.18;46.12;60.02;;
60503;Laerm;51448;51.660;5.824;2023-07-29T08:07:44;49.98;45.33;64.53;;
60503;Laerm;51448;51.660;5.824;2023-07-29T08:10:11;49.84;45.24;60.22;;
60503;Laerm;51448;51.660;5.824;2023-07-29T08:12:39;49.76;45.68;57.79;;
60503;Laerm;51448;51.660;5.824;2023-07-29T08:15:07;54.67;46.00;66.57;;
60503;Laerm;51448;51.660;5.824;2023-07-29T08:17:35;50.61;45.64;67.51;;
60503;Laerm;51448;51.660;5.824;2023-07-29T08:20:03;49.99;45.51;59.72;;
60503;Laerm;51448;51.660;5.824;2023-07-29T08:22:31;50.83;45.56;60.00;;
60503;Laerm;51448;51.660;5.824;2023-07-29T08:24:59;51.23;45.83;60.53;;
60503;Laerm;51448;51.660;5.824;2023-07-29T08:27:26;52.08;45.55;66.00;;
60503;Laerm;51448;51.660;5.824;2023-07-29T08:29:54;49.05;45.46;56.34;;
60503;Laerm;51448;51.660;5.824;2023-07-29T08:32:22;53.33;45.30;68.74;;
60503;Laerm;51448;51.660;5.824;2023-07-29T08:34:50;49.98;46.81;57.73;;
60503;Laerm;51448;51.660;5.824;2023-07-29T08:37:17;50.72;46.56;57.48;;
60503;Laerm;51448;51.660;5.824;2023-07-29T08:39:45;50.28;46.32;58.29;;
60503;Laerm;51448;51.660;5.824;2023-07-29T08:42:14;51.40;46.29;70.39;;
60503;Laerm;51448;51.660;5.824;2023-07-29T08:44:45;50.54;45.88;61.39;;
60503;Laerm;51448;51.660;5.824;2023-07-29T08:47:13;50.08;45.69;58.18;;
60503;Laerm;51448;51.660;5.824;2023-07-29T08:49:42;49.66;45.65;59.03;;
60503;Laerm;51448;51.660;5.824;2023-07-29T08:52:12;49.45;45.97;63.07;;
60503;Laerm;51448;51.660;5.824;2023-07-29T08:54:41;50.19;45.53;57.45;;
60503;Laerm;51448;51.660;5.824;2023-07-29T08:57:10;50.00;45.59;59.85;;
60503;Laerm;51448;51.660;5.824;2023-07-29T08:59:38;50.09;45.14;67.39;;
60503;Laerm;51448;51.660;5.824;2023-07-29T09:02:07;49.93;45.63;58.88;;
60503;Laerm;51448;51.660;5.824;2023-07-29T09:04:34;49.76;45.56;57.76;;
60503;Laerm;51448;51.660;5.824;2023-07-29T09:07:03;53.74;45.47;69.03;;
60503;Laerm;51448;51.660;5.824;2023-07-29T09:09:33;50.39;46.13;62.78;;
60503;Laerm;51448;51.660;5.824;2023-07-29T09:12:01;51.35;46.32;62.60;;
60503;Laerm;51448;51.660;5.824;2023-07-29T09:14:29;51.69;46.82;66.45;;
60503;Laerm;51448;51.660;5.824;2023-07-29T09:16:57;50.63;46.97;65.77;;
60503;Laerm;51448;51.660;5.824;2023-07-29T09:19:25;50.15;46.06;59.20;;
60503;Laerm;51448;51.660;5.824;2023-07-29T09:21:54;50.00;45.80;66.39;;
60503;Laerm;51448;51.660;5.824;2023-07-29T09:24:21;49.21;45.44;56.53;;
60503;Laerm;51448;51.660;5.824;2023-07-29T09:26:50;49.15;45.96;57.65;;
60503;Laerm;51448;51.660;5.824;2023-07-29T09:29:22;49.04;46.12;56.37;;
60503;Laerm;51448;51.660;5.824;2023-07-29T09:31:50;50.82;46.58;60.10;;
60503;Laerm;51448;51.660;5.824;2023-07-29T09:34:18;50.50;44.92;66.89;;
60503;Laerm;51448;51.660;5.824;2023-07-29T09:36:45;49.45;45.44;65.29;;
60503;Laerm;51448;51.660;5.824;2023-07-29T09:39:13;51.05;46.12;61.25;;
60503;Laerm;51448;51.660;5.824;2023-07-29T09:41:41;49.19;46.39;54.50;;
60503;Laerm;51448;51.660;5.824;2023-07-29T09:44:11;53.50;46.09;66.25;;
60503;Laerm;51448;51.660;5.824;2023-07-29T09:46:39;49.31;44.60;58.37;;
60503;Laerm;51448;51.660;5.824;2023-07-29T09:49:08;50.20;45.16;60.77;;
60503;Laerm;51448;51.660;5.824;2023-07-29T09:51:39;49.37;46.28;59.41;;
60503;Laerm;51448;51.660;5.824;2023-07-29T09:54:10;51.38;46.89;64.73;;
60503;Laerm;51448;51.660;5.824;2023-07-29T09:56:42;49.66;45.23;57.79;;
60503;Laerm;51448;51.660;5.824;2023-07-29T09:59:13;48.77;45.49;55.56;;
60503;Laerm;51448;51.660;5.824;2023-07-29T10:01:42;49.13;45.09;57.22;;
60503;Laerm;51448;51.660;5.824;2023-07-29T10:04:10;50.97;46.18;66.24;;
60503;Laerm;51448;51.660;5.824;2023-07-29T10:06:41;51.71;47.10;63.26;;
60503;Laerm;51448;51.660;5.824;2023-07-29T10:09:11;50.28;45.29;58.70;;
60503;Laerm;51448;51.660;5.824;2023-07-29T10:11:41;51.43;45.57;60.69;;
60503;Laerm;51448;51.660;5.824;2023-07-29T10:14:09;49.62;40.73;56.82;;
60503;Laerm;51448;51.660;5.824;2023-07-29T10:16:39;45.99;38.95;62.00;;
60503;Laerm;51448;51.660;5.824;2023-07-29T10:19:09;43.78;35.85;57.22;;
60503;Laerm;51448;51.660;5.824;2023-07-29T10:21:39;46.96;35.48;64.60;;
60503;Laerm;51448;51.660;5.824;2023-07-29T10:24:15;47.40;35.87;61.37;;
60503;Laerm;51448;51.660;5.824;2023-07-29T10:26:46;44.12;36.66;53.48;;
60503;Laerm;51448;51.660;5.824;2023-07-29T10:29:20;47.37;37.02;59.13;;
60503;Laerm;51448;51.660;5.824;2023-07-29T10:31:52;45.06;36.39;55.08;;
60503;Laerm;51448;51.660;5.824;2023-07-29T10:34:21;46.06;34.59;57.09;;
60503;Laerm;51448;51.660;5.824;2023-07-29T10:36:51;45.76;35.27;61.14;;
60503;Laerm;51448;51.660;5.824;2023-07-29T10:39:20;45.55;36.69;63.06;;
60503;Laerm;51448;51.660;5.824;2023-07-29T10:41:55;45.32;35.03;62.70;;
60503;Laerm;51448;51.660;5.824;2023-07-29T10:47:14;41.81;36.62;54.61;;
60503;Laerm;51448;51.660;5.824;2023-07-29T10:49:43;44.46;36.27;56.57;;
60503;Laerm;51448;51.660;5.824;2023-07-29T10:52:17;45.58;36.59;63.43;;
60503;Laerm;51448;51.660;5.824;2023-07-29T10:54:54;45.31;37.70;59.85;;
60503;Laerm;51448;51.660;5.824;2023-07-29T10:57:37;46.21;37.46;63.83;;
60503;Laerm;51448;51.660;5.824;2023-07-29T11:00:05;45.08;36.55;58.78;;
60503;Laerm;51448;51.660;5.824;2023-07-29T11:02:38;42.35;33.47;54.87;;
60503;Laerm;51448;51.660;5.824;2023-07-29T11:05:18;43.51;35.27;55.87;;
60503;Laerm;51448;51.660;5.824;2023-07-29T11:07:49;39.84;34.06;53.50;;
60503;Laerm;51448;51.660;5.824;2023-07-29T11:10:17;46.08;36.70;68.03;;
60503;Laerm;51448;51.660;5.824;2023-07-29T11:15:20;45.63;36.43;65.53;;
60503;Laerm;51448;51.660;5.824;2023-07-29T11:18:00;42.92;35.65;60.58;;
60503;Laerm;51448;51.660;5.824;2023-07-29T11:20:32;43.43;35.50;59.79;;
60503;Laerm;51448;51.660;5.824;2023-07-29T11:23:01;41.71;35.79;62.33;;
60503;Laerm;51448;51.660;5.824;2023-07-29T11:25:30;44.29;32.83;59.47;;
60503;Laerm;51448;51.660;5.824;2023-07-29T11:28:00;43.88;34.69;60.90;;
60503;Laerm;51448;51.660;5.824;2023-07-29T11:30:32;46.59;34.71;67.32;;
60503;Laerm;51448;51.660;5.824;2023-07-29T11:33:01;49.80;36.03;68.43;;
60503;Laerm;51448;51.660;5.824;2023-07-29T11:35:29;49.35;45.96;55.82;;
60503;Laerm;51448;51.660;5.824;2023-07-29T11:37:56;49.84;45.64;59.68;;
60503;Laerm;51448;51.660;5.824;2023-07-29T11:40:24;51.24;46.19;62.94;;
60503;Laerm;51448;51.660;5.824;2023-07-29T11:42:53;50.55;46.05;62.59;;
60503;Laerm;51448;51.660;5.824;2023-07-29T11:45:22;50.78;45.92;60.13;;
60503;Laerm;51448;51.660;5.824;2023-07-29T11:48:02;49.85;45.82;60.14;;
60503;Laerm;51448;51.660;5.824;2023-07-29T11:50:30;50.09;45.69;60.21;;
60503;Laerm;51448;51.660;5.824;2023-07-29T11:52:57;50.23;45.79;59.90;;
60503;Laerm;51448;51.660;5.824;2023-07-29T11:55:25;50.40;46.25;59.33;;
60503;Laerm;51448;51.660;5.824;2023-07-29T11:57:53;49.81;45.89;56.30;;
60503;Laerm;51448;51.660;5.824;2023-07-29T12:00:21;49.93;45.75;57.78;;
60503;Laerm;51448;51.660;5.824;2023-07-29T12:02:50;53.05;45.48;65.58;;
60503;Laerm;51448;51.660;5.824;2023-07-29T12:05:21;54.31;46.36;67.60;;
60503;Laerm;51448;51.660;5.824;2023-07-29T12:07:49;49.94;45.52;57.71;;
60503;Laerm;51448;51.660;5.824;2023-07-29T12:10:17;49.64;45.76;62.04;;
60503;Laerm;51448;51.660;5.824;2023-07-29T12:12:48;49.41;44.76;61.42;;
60503;Laerm;51448;51.660;5.824;2023-07-29T12:15:29;50.83;45.55;68.90;;
60503;Laerm;51448;51.660;5.824;2023-07-29T12:17:58;49.73;44.94;57.57;;
60503;Laerm;51448;51.660;5.824;2023-07-29T12:20:29;50.49;45.15;69.96;;
60503;Laerm;51448;51.660;5.824;2023-07-29T12:22:59;49.32;44.99;57.78;;
60503;Laerm;51448;51.660;5.824;2023-07-29T12:25:30;48.08;34.37;62.87;;
60503;Laerm;51448;51.660;5.824;2023-07-29T12:28:05;47.60;35.61;58.14;;
60503;Laerm;51448;51.660;5.824;2023-07-29T12:30:33;52.46;35.59;63.90;;
60503;Laerm;51448;51.660;5.824;2023-07-29T12:33:01;54.03;35.58;69.20;;
60503;Laerm;51448;51.660;5.824;2023-07-29T12:35:37;58.86;48.26;76.71;;
60503;Laerm;51448;51.660;5.824;2023-07-29T12:38:05;60.73;55.11;69.53;;
60503;Laerm;51448;51.660;5.824;2023-07-29T12:40:38;60.53;50.03;76.29;;
60503;Laerm;51448;51.660;5.824;2023-07-29T12:43:06;64.76;55.96;76.24;;
60503;Laerm;51448;51.660;5.824;2023-07-29T12:45:37;71.48;66.14;78.22;;
60503;Laerm;51448;51.660;5.824;2023-07-29T12:48:10;70.02;62.15;87.50;;
60503;Laerm;51448;51.660;5.824;2023-07-29T12:50:38;71.24;63.79;90.93;;
60503;Laerm;51448;51.660;5.824;2023-07-29T12:53:08;74.71;67.40;85.10;;
60503;Laerm;51448;51.660;5.824;2023-07-29T12:55:38;64.81;55.38;86.26;;
60503;Laerm;51448;51.660;5.824;2023-07-29T12:58:05;58.25;50.25;70.36;;
60503;Laerm;51448;51.660;5.824;2023-07-29T13:00:33;59.57;52.11;71.49;;
60503;Laerm;51448;51.660;5.824;2023-07-29T13:03:01;59.62;52.55;67.69;;
60503;Laerm;51448;51.660;5.824;2023-07-29T13:05:28;59.45;54.96;69.21;;
60503;Laerm;51448;51.660;5.824;2023-07-29T13:07:56;52.51;42.91;65.34;;
60503;Laerm;51448;51.660;5.824;2023-07-29T13:10:24;54.97;42.40;78.03;;
60503;Laerm;51448;51.660;5.824;2023-07-29T13:12:51;58.76;51.95;68.63;;
60503;Laerm;51448;51.660;5.824;2023-07-29T13:15:19;60.70;56.87;69.19;;
60503;Laerm;51448;51.660;5.824;2023-07-29T13:17:47;56.99;51.45;68.43;;
60503;Laerm;51448;51.660;5.824;2023-07-29T13:20:14;53.55;47.94;64.28;;
60503;Laerm;51448;51.660;5.824;2023-07-29T13:22:42;51.30;42.00;64.44;;
60503;Laerm;51448;51.660;5.824;2023-07-29T13:25:10;46.62;35.31;63.80;;
60503;Laerm;51448;51.660;5.824;2023-07-29T13:27:38;45.75;34.31;57.94;;
60503;Laerm;51448;51.660;5.824;2023-07-29T13:30:07;48.16;34.78;60.80;;
60503;Laerm;51448;51.660;5.824;2023-07-29T13:32:35;52.71;34.91;78.95;;
60503;Laerm;51448;51.660;5.824;2023-07-29T13:35:03;50.59;35.68;73.06;;
60503;Laerm;51448;51.660;5.824;2023-07-29T13:37:30;48.00;36.53;67.48;;
60503;Laerm;51448;51.660;5.824;2023-07-29T13:39:58;48.35;36.27;59.92;;
60503;Laerm;51448;51.660;5.824;2023-07-29T13:42:25;50.49;35.62;74.31;;
60503;Laerm;51448;51.660;5.824;2023-07-29T13:44:53;58.15;48.07;65.94;;
60503;Laerm;51448;51.660;5.824;2023-07-29T13:47:20;56.47;49.06;64.05;;
60503;Laerm;51448;51.660;5.824;2023-07-29T13:49:49;51.14;48.08;64.69;;
60503;Laerm;51448;51.660;5.824;2023-07-29T13:52:17;52.02;48.20;60.42;;
60503;Laerm;51448;51.660;5.824;2023-07-29T13:54:44;50.66;35.92;59.50;;
60503;Laerm;51448;51.660;5.824;2023-07-29T13:57:12;47.15;35.00;59.14;;
60503;Laerm;51448;51.660;5.824;2023-07-29T13:59:39;44.48;34.20;57.50;;
60503;Laerm;51448;51.660;5.824;2023-07-29T14:02:07;44.41;34.61;55.08;;